IGO23J VABB-OOMS
Flight info
| Callsign | IGO23J |
|---|---|
| Flight time | 3h 1m |
| Altitude | 36000 |
| Route | ANOLI2A EXOLU DCT KARKU W103 DOGET DCT PARAR DCT ELIGO |
| Aircraft | A21N/M-SDE2E3FGHIRWXY/LB1 |
Departure
| Time | 2026-04-30 11:43 |
|---|---|
| Airport | Chhatrapati Shivaji Maharaj International Airport (VABB) |
Arrival
| Time | 2026-04-30 14:45 |
|---|---|
| Airport | Muscat International Airport (OOMS) |
| Time | Latitude | Longitude | Altitude | Speed | Heading |
|---|---|---|---|---|---|
| 2026-04-30 11:26 | 19.09420 | 72.87638 | 50 ft | 0 kts | 11° |
| 2026-04-30 11:33 | 19.09409 | 72.87636 | 48 ft | 3 kts | 11° |
| 2026-04-30 11:33 | 19.09385 | 72.87631 | 49 ft | 3 kts | 11° |
| 2026-04-30 11:33 | 19.09367 | 72.87627 | 47 ft | 3 kts | 11° |
| 2026-04-30 11:34 | 19.09356 | 72.87625 | 49 ft | 2 kts | 11° |
| 2026-04-30 11:34 | 19.09339 | 72.87622 | 50 ft | 2 kts | 11° |
| 2026-04-30 11:34 | 19.09324 | 72.87614 | 52 ft | 2 kts | 63° |
| 2026-04-30 11:34 | 19.09322 | 72.87596 | 50 ft | 2 kts | 121° |
| 2026-04-30 11:35 | 19.09323 | 72.87595 | 50 ft | 0 kts | 127° |
| 2026-04-30 11:39 | 19.09322 | 72.87596 | 52 ft | 1 kts | 127° |
| 2026-04-30 11:39 | 19.09317 | 72.87603 | 50 ft | 3 kts | 127° |
| 2026-04-30 11:40 | 19.09283 | 72.87648 | 52 ft | 11 kts | 131° |
| 2026-04-30 11:40 | 19.09252 | 72.87670 | 52 ft | 6 kts | 167° |
| 2026-04-30 11:40 | 19.09198 | 72.87674 | 52 ft | 10 kts | 178° |
| 2026-04-30 11:40 | 19.09146 | 72.87716 | 52 ft | 8 kts | 94° |
| 2026-04-30 11:41 | 19.09130 | 72.87788 | 51 ft | 12 kts | 138° |
| 2026-04-30 11:41 | 19.09064 | 72.87854 | 50 ft | 15 kts | 104° |
| 2026-04-30 11:41 | 19.09058 | 72.87966 | 52 ft | 12 kts | 90° |
| 2026-04-30 11:41 | 19.09017 | 72.88048 | 51 ft | 15 kts | 165° |
| 2026-04-30 11:42 | 19.08909 | 72.88030 | 46 ft | 17 kts | 223° |
| 2026-04-30 11:42 | 19.08887 | 72.87911 | 51 ft | 16 kts | 269° |
| 2026-04-30 11:42 | 19.08887 | 72.87898 | 51 ft | 0 kts | 269° |
| 2026-04-30 11:42 | 19.08885 | 72.87793 | 51 ft | 32 kts | 269° |
| 2026-04-30 11:43 | 19.08877 | 72.87287 | 54 ft | 108 kts | 269° |
| 2026-04-30 11:43 | 19.08856 | 72.86241 | 63 ft | 175 kts | 268° |
| 2026-04-30 11:43 | 19.08844 | 72.84884 | 589 ft | 192 kts | 263° |
| 2026-04-30 11:43 | 19.08801 | 72.83464 | 1369 ft | 190 kts | 267° |
| 2026-04-30 11:44 | 19.08789 | 72.82059 | 2041 ft | 200 kts | 268° |
| 2026-04-30 11:44 | 19.08773 | 72.80494 | 2357 ft | 226 kts | 268° |
| 2026-04-30 11:44 | 19.08747 | 72.78755 | 2741 ft | 245 kts | 269° |
| 2026-04-30 11:44 | 19.08715 | 72.76914 | 3319 ft | 253 kts | 269° |
| 2026-04-30 11:45 | 19.08712 | 72.75044 | 4006 ft | 256 kts | 275° |
| 2026-04-30 11:45 | 19.09154 | 72.73222 | 4652 ft | 260 kts | 297° |
| 2026-04-30 11:45 | 19.10348 | 72.71783 | 5349 ft | 265 kts | 324° |
| 2026-04-30 11:45 | 19.12059 | 72.71119 | 6044 ft | 273 kts | 351° |
| 2026-04-30 11:46 | 19.13957 | 72.71429 | 6750 ft | 284 kts | 16° |
| 2026-04-30 11:46 | 19.15773 | 72.72315 | 7415 ft | 291 kts | 22° |
| 2026-04-30 11:46 | 19.17577 | 72.73321 | 8081 ft | 295 kts | 24° |
| 2026-04-30 11:46 | 19.19452 | 72.74205 | 8769 ft | 294 kts | 9° |
| 2026-04-30 11:47 | 19.21469 | 72.74406 | 9443 ft | 292 kts | 355° |
| 2026-04-30 11:47 | 19.23497 | 72.74331 | 9859 ft | 292 kts | 352° |
| 2026-04-30 11:47 | 19.25535 | 72.74204 | 9983 ft | 294 kts | 352° |
| 2026-04-30 11:47 | 19.27584 | 72.74074 | 9998 ft | 295 kts | 352° |
| 2026-04-30 11:48 | 19.29648 | 72.73898 | 10005 ft | 306 kts | 346° |
| 2026-04-30 11:48 | 19.31761 | 72.73296 | 10190 ft | 323 kts | 338° |
| 2026-04-30 11:48 | 19.33934 | 72.72480 | 10482 ft | 337 kts | 336° |
| 2026-04-30 11:48 | 19.36163 | 72.71614 | 10969 ft | 343 kts | 337° |
| 2026-04-30 11:49 | 19.38418 | 72.70741 | 11544 ft | 346 kts | 337° |
| 2026-04-30 11:49 | 19.40688 | 72.69866 | 12122 ft | 349 kts | 338° |
| 2026-04-30 11:49 | 19.42946 | 72.68998 | 12718 ft | 351 kts | 338° |
| 2026-04-30 11:49 | 19.45278 | 72.68103 | 13329 ft | 353 kts | 338° |
| 2026-04-30 11:50 | 19.47565 | 72.67226 | 13884 ft | 356 kts | 338° |
| 2026-04-30 11:50 | 19.49904 | 72.66320 | 14432 ft | 358 kts | 338° |
| 2026-04-30 11:50 | 19.52249 | 72.65394 | 14980 ft | 360 kts | 338° |
| 2026-04-30 11:50 | 19.54607 | 72.64459 | 15543 ft | 363 kts | 338° |
| 2026-04-30 11:51 | 19.56977 | 72.63518 | 16113 ft | 365 kts | 338° |
| 2026-04-30 11:51 | 19.59367 | 72.62569 | 16693 ft | 367 kts | 338° |
| 2026-04-30 11:51 | 19.61768 | 72.61616 | 17258 ft | 369 kts | 338° |
| 2026-04-30 11:51 | 19.64179 | 72.60659 | 17839 ft | 371 kts | 338° |
| 2026-04-30 11:52 | 19.66603 | 72.59696 | 18310 ft | 373 kts | 339° |
| 2026-04-30 11:52 | 19.69038 | 72.58729 | 18744 ft | 375 kts | 339° |
| 2026-04-30 11:52 | 19.71453 | 72.57769 | 19190 ft | 376 kts | 339° |
| 2026-04-30 11:52 | 19.73906 | 72.56794 | 19647 ft | 377 kts | 338° |
| 2026-04-30 11:53 | 19.76364 | 72.55817 | 20102 ft | 378 kts | 338° |
| 2026-04-30 11:53 | 19.78831 | 72.54835 | 20587 ft | 379 kts | 338° |
| 2026-04-30 11:53 | 19.81305 | 72.53851 | 21046 ft | 380 kts | 338° |
| 2026-04-30 11:53 | 19.83789 | 72.52862 | 21526 ft | 382 kts | 338° |
| 2026-04-30 11:54 | 19.86281 | 72.51870 | 22022 ft | 383 kts | 338° |
| 2026-04-30 11:54 | 19.88786 | 72.50872 | 22520 ft | 385 kts | 338° |
| 2026-04-30 11:54 | 19.91300 | 72.49870 | 23011 ft | 386 kts | 338° |
| 2026-04-30 11:54 | 19.93810 | 72.48841 | 23555 ft | 385 kts | 335° |
| 2026-04-30 11:55 | 19.96204 | 72.47565 | 23957 ft | 386 kts | 328° |
| 2026-04-30 11:55 | 19.98391 | 72.45883 | 24243 ft | 390 kts | 319° |
| 2026-04-30 11:55 | 20.00286 | 72.43797 | 24535 ft | 395 kts | 310° |
| 2026-04-30 11:55 | 20.01824 | 72.41356 | 24829 ft | 401 kts | 300° |
| 2026-04-30 11:56 | 20.02934 | 72.38655 | 25122 ft | 407 kts | 291° |
| 2026-04-30 11:56 | 20.03702 | 72.35741 | 25418 ft | 412 kts | 287° |
| 2026-04-30 11:56 | 20.04371 | 72.32771 | 25704 ft | 415 kts | 286° |
| 2026-04-30 11:56 | 20.05034 | 72.29772 | 25993 ft | 417 kts | 286° |
| 2026-04-30 11:57 | 20.05702 | 72.26764 | 26272 ft | 419 kts | 286° |
| 2026-04-30 11:57 | 20.06380 | 72.23737 | 26491 ft | 423 kts | 286° |
| 2026-04-30 11:57 | 20.07069 | 72.20676 | 26712 ft | 426 kts | 286° |
| 2026-04-30 11:57 | 20.07762 | 72.17604 | 26981 ft | 428 kts | 286° |
| 2026-04-30 11:58 | 20.08459 | 72.14513 | 27249 ft | 430 kts | 286° |
| 2026-04-30 11:58 | 20.09159 | 72.11407 | 27487 ft | 433 kts | 286° |
| 2026-04-30 11:58 | 20.09863 | 72.08287 | 27726 ft | 435 kts | 286° |
| 2026-04-30 11:58 | 20.10571 | 72.05149 | 27965 ft | 437 kts | 286° |
| 2026-04-30 11:59 | 20.11280 | 72.01998 | 28190 ft | 439 kts | 286° |
| 2026-04-30 11:59 | 20.11995 | 71.98824 | 28400 ft | 441 kts | 286° |
| 2026-04-30 11:59 | 20.12710 | 71.95642 | 28623 ft | 444 kts | 286° |
| 2026-04-30 11:59 | 20.13430 | 71.92437 | 28831 ft | 446 kts | 286° |
| 2026-04-30 12:00 | 20.14143 | 71.89263 | 29021 ft | 448 kts | 286° |
| 2026-04-30 12:00 | 20.14868 | 71.86031 | 29223 ft | 450 kts | 286° |
| 2026-04-30 12:00 | 20.15592 | 71.82801 | 29571 ft | 448 kts | 286° |
| 2026-04-30 12:00 | 20.16313 | 71.79575 | 29899 ft | 447 kts | 286° |
| 2026-04-30 12:01 | 20.17034 | 71.76354 | 30171 ft | 446 kts | 285° |
| 2026-04-30 12:01 | 20.17748 | 71.73153 | 30511 ft | 443 kts | 285° |
| 2026-04-30 12:01 | 20.18462 | 71.69958 | 30783 ft | 443 kts | 285° |
| 2026-04-30 12:01 | 20.19173 | 71.66772 | 31024 ft | 443 kts | 285° |
| 2026-04-30 12:02 | 20.19883 | 71.63584 | 31262 ft | 442 kts | 285° |
| 2026-04-30 12:02 | 20.20593 | 71.60398 | 31504 ft | 442 kts | 285° |
| 2026-04-30 12:02 | 20.21337 | 71.57228 | 31742 ft | 441 kts | 288° |
| 2026-04-30 12:02 | 20.22227 | 71.54103 | 31969 ft | 440 kts | 289° |
| 2026-04-30 12:03 | 20.23176 | 71.51003 | 32176 ft | 441 kts | 290° |
| 2026-04-30 12:03 | 20.25149 | 71.44829 | 32638 ft | 440 kts | 290° |
| 2026-04-30 12:03 | 20.26131 | 71.41784 | 32857 ft | 439 kts | 290° |
| 2026-04-30 12:04 | 20.27119 | 71.38708 | 33072 ft | 439 kts | 290° |
| 2026-04-30 12:04 | 20.28102 | 71.35630 | 33284 ft | 439 kts | 290° |
| 2026-04-30 12:04 | 20.29081 | 71.32552 | 33494 ft | 438 kts | 289° |
| 2026-04-30 12:04 | 20.30054 | 71.29479 | 33695 ft | 438 kts | 289° |
| 2026-04-30 12:05 | 20.31029 | 71.26396 | 33874 ft | 438 kts | 289° |
| 2026-04-30 12:05 | 20.32001 | 71.23315 | 34048 ft | 437 kts | 289° |
| 2026-04-30 12:05 | 20.32971 | 71.20240 | 34215 ft | 437 kts | 289° |
| 2026-04-30 12:05 | 20.33937 | 71.17176 | 34383 ft | 436 kts | 289° |
| 2026-04-30 12:06 | 20.34890 | 71.14151 | 34542 ft | 436 kts | 289° |
| 2026-04-30 12:06 | 20.35867 | 71.11048 | 34705 ft | 435 kts | 289° |
| 2026-04-30 12:06 | 20.36817 | 71.08030 | 34858 ft | 435 kts | 289° |
| 2026-04-30 12:06 | 20.37777 | 71.04977 | 35010 ft | 435 kts | 289° |
| 2026-04-30 12:07 | 20.38736 | 71.01926 | 35154 ft | 434 kts | 289° |
| 2026-04-30 12:07 | 20.39696 | 70.98871 | 35295 ft | 434 kts | 289° |
| 2026-04-30 12:07 | 20.40651 | 70.95828 | 35486 ft | 432 kts | 289° |
| 2026-04-30 12:07 | 20.41602 | 70.92797 | 35682 ft | 430 kts | 289° |
| 2026-04-30 12:08 | 20.42550 | 70.89772 | 35813 ft | 430 kts | 289° |
| 2026-04-30 12:08 | 20.44439 | 70.83741 | 35963 ft | 431 kts | 289° |
| 2026-04-30 12:09 | 20.46345 | 70.77644 | 35971 ft | 431 kts | 289° |
| 2026-04-30 12:09 | 20.48231 | 70.71604 | 35972 ft | 431 kts | 289° |
| 2026-04-30 12:10 | 20.50125 | 70.65529 | 35971 ft | 431 kts | 289° |
| 2026-04-30 12:10 | 20.52021 | 70.59440 | 35972 ft | 431 kts | 289° |
| 2026-04-30 12:11 | 20.53900 | 70.53397 | 35969 ft | 431 kts | 289° |
| 2026-04-30 12:11 | 20.55789 | 70.47313 | 35969 ft | 432 kts | 289° |
| 2026-04-30 12:12 | 20.57679 | 70.41216 | 35966 ft | 433 kts | 289° |
| 2026-04-30 12:12 | 20.59568 | 70.35116 | 35965 ft | 433 kts | 288° |
| 2026-04-30 12:13 | 20.61456 | 70.29012 | 35965 ft | 432 kts | 288° |
| 2026-04-30 12:13 | 20.63331 | 70.22937 | 35969 ft | 432 kts | 288° |
| 2026-04-30 12:14 | 20.65210 | 70.16846 | 35967 ft | 431 kts | 288° |
| 2026-04-30 12:14 | 20.67084 | 70.10760 | 35966 ft | 431 kts | 288° |
| 2026-04-30 12:15 | 20.68957 | 70.04668 | 35967 ft | 431 kts | 288° |
| 2026-04-30 12:15 | 20.70829 | 69.98572 | 35967 ft | 431 kts | 288° |
| 2026-04-30 12:16 | 20.72687 | 69.92515 | 35969 ft | 431 kts | 288° |
| 2026-04-30 12:16 | 20.74554 | 69.86417 | 35968 ft | 431 kts | 288° |
| 2026-04-30 12:17 | 20.77355 | 69.77257 | 35978 ft | 432 kts | 288° |
| 2026-04-30 12:17 | 20.79211 | 69.71172 | 35970 ft | 433 kts | 288° |
| 2026-04-30 12:18 | 20.81076 | 69.65052 | 35969 ft | 432 kts | 288° |
| 2026-04-30 12:18 | 20.82932 | 69.58955 | 35972 ft | 432 kts | 288° |
| 2026-04-30 12:19 | 20.84791 | 69.52836 | 35968 ft | 433 kts | 288° |
| 2026-04-30 12:19 | 20.86651 | 69.46706 | 35972 ft | 434 kts | 288° |
| 2026-04-30 12:20 | 20.88502 | 69.40598 | 35965 ft | 434 kts | 288° |
| 2026-04-30 12:20 | 20.90363 | 69.34449 | 35966 ft | 434 kts | 288° |
| 2026-04-30 12:21 | 20.91909 | 69.29332 | 35972 ft | 434 kts | 288° |
| 2026-04-30 12:21 | 20.93767 | 69.23177 | 35965 ft | 434 kts | 288° |
| 2026-04-30 12:22 | 20.95626 | 69.17009 | 35962 ft | 434 kts | 288° |
| 2026-04-30 12:22 | 20.97224 | 69.10812 | 35965 ft | 435 kts | 278° |
| 2026-04-30 12:23 | 20.97818 | 69.04337 | 35968 ft | 436 kts | 274° |
| 2026-04-30 12:23 | 20.98180 | 68.97892 | 35969 ft | 436 kts | 273° |
| 2026-04-30 12:24 | 20.98500 | 68.91392 | 35961 ft | 436 kts | 273° |
| 2026-04-30 12:24 | 20.98832 | 68.84896 | 35968 ft | 436 kts | 273° |
| 2026-04-30 12:25 | 20.99174 | 68.78431 | 35969 ft | 437 kts | 273° |
| 2026-04-30 12:25 | 20.99519 | 68.71938 | 35960 ft | 437 kts | 273° |
| 2026-04-30 12:26 | 20.99862 | 68.65433 | 35961 ft | 437 kts | 273° |
| 2026-04-30 12:26 | 21.00201 | 68.58972 | 35961 ft | 437 kts | 273° |
| 2026-04-30 12:27 | 21.00538 | 68.52464 | 35957 ft | 437 kts | 273° |
| 2026-04-30 12:27 | 21.00873 | 68.45967 | 35969 ft | 437 kts | 273° |
| 2026-04-30 12:28 | 21.01203 | 68.39509 | 35960 ft | 437 kts | 273° |
| 2026-04-30 12:28 | 21.01532 | 68.33012 | 35961 ft | 437 kts | 273° |
| 2026-04-30 12:29 | 21.01857 | 68.26561 | 35960 ft | 435 kts | 273° |
| 2026-04-30 12:29 | 21.02180 | 68.20095 | 35957 ft | 435 kts | 273° |
| 2026-04-30 12:30 | 21.02501 | 68.13629 | 35968 ft | 435 kts | 272° |
| 2026-04-30 12:30 | 21.02820 | 68.07156 | 35958 ft | 435 kts | 272° |
| 2026-04-30 12:31 | 21.03136 | 68.00679 | 35966 ft | 435 kts | 272° |
| 2026-04-30 12:31 | 21.03447 | 67.94256 | 35965 ft | 435 kts | 272° |
| 2026-04-30 12:32 | 21.03758 | 67.87786 | 35960 ft | 435 kts | 272° |
| 2026-04-30 12:32 | 21.04067 | 67.81319 | 35965 ft | 435 kts | 272° |
| 2026-04-30 12:33 | 21.04373 | 67.74840 | 35961 ft | 435 kts | 272° |
| 2026-04-30 12:33 | 21.04677 | 67.68369 | 35965 ft | 435 kts | 272° |
| 2026-04-30 12:34 | 21.04976 | 67.61936 | 35959 ft | 435 kts | 272° |
| 2026-04-30 12:34 | 21.05275 | 67.55463 | 35955 ft | 435 kts | 272° |
| 2026-04-30 12:35 | 21.05573 | 67.48965 | 35958 ft | 435 kts | 272° |
| 2026-04-30 12:35 | 21.05867 | 67.42497 | 35965 ft | 435 kts | 272° |
| 2026-04-30 12:36 | 21.06156 | 67.36061 | 35966 ft | 435 kts | 272° |
| 2026-04-30 12:36 | 21.06445 | 67.29592 | 35968 ft | 435 kts | 272° |
| 2026-04-30 12:37 | 21.06733 | 67.23102 | 35969 ft | 435 kts | 272° |
| 2026-04-30 12:37 | 21.07015 | 67.16666 | 35960 ft | 435 kts | 272° |
| 2026-04-30 12:38 | 21.07297 | 67.10195 | 35968 ft | 435 kts | 272° |
| 2026-04-30 12:38 | 21.07576 | 67.03713 | 35960 ft | 435 kts | 272° |
| 2026-04-30 12:39 | 21.07853 | 66.97231 | 35957 ft | 435 kts | 272° |
| 2026-04-30 12:39 | 21.08126 | 66.90791 | 35965 ft | 435 kts | 272° |
| 2026-04-30 12:40 | 21.08398 | 66.84317 | 35966 ft | 435 kts | 271° |
| 2026-04-30 12:40 | 21.08668 | 66.77838 | 35958 ft | 436 kts | 271° |
| 2026-04-30 12:41 | 21.08935 | 66.71355 | 35966 ft | 435 kts | 271° |
| 2026-04-30 12:41 | 21.09199 | 66.64876 | 35965 ft | 435 kts | 271° |
| 2026-04-30 12:42 | 21.09461 | 66.58413 | 35963 ft | 434 kts | 271° |
| 2026-04-30 12:42 | 21.09720 | 66.51950 | 35960 ft | 434 kts | 271° |
| 2026-04-30 12:43 | 21.09977 | 66.45497 | 35968 ft | 434 kts | 271° |
| 2026-04-30 12:43 | 21.10229 | 66.39081 | 35968 ft | 434 kts | 271° |
| 2026-04-30 12:44 | 21.10481 | 66.32614 | 35965 ft | 434 kts | 271° |
| 2026-04-30 12:44 | 21.10730 | 66.26149 | 35957 ft | 434 kts | 271° |
| 2026-04-30 12:45 | 21.10976 | 66.19729 | 35965 ft | 434 kts | 271° |
| 2026-04-30 12:45 | 21.11220 | 66.13270 | 35957 ft | 434 kts | 271° |
| 2026-04-30 12:46 | 21.11462 | 66.06803 | 35960 ft | 434 kts | 271° |
| 2026-04-30 12:46 | 21.12134 | 66.00386 | 35970 ft | 435 kts | 283° |
| 2026-04-30 12:47 | 21.14341 | 65.94359 | 35964 ft | 437 kts | 293° |
| 2026-04-30 12:47 | 21.17049 | 65.88508 | 35963 ft | 438 kts | 295° |
| 2026-04-30 12:48 | 21.19825 | 65.82728 | 35965 ft | 439 kts | 295° |
| 2026-04-30 12:48 | 21.22608 | 65.76888 | 35964 ft | 439 kts | 294° |
| 2026-04-30 12:49 | 21.25360 | 65.71049 | 35960 ft | 438 kts | 294° |
| 2026-04-30 12:49 | 21.28085 | 65.65241 | 35958 ft | 437 kts | 294° |
| 2026-04-30 12:50 | 21.30813 | 65.59417 | 35960 ft | 437 kts | 294° |
| 2026-04-30 12:50 | 21.33542 | 65.53585 | 35962 ft | 437 kts | 294° |
| 2026-04-30 12:51 | 21.36270 | 65.47751 | 35965 ft | 437 kts | 294° |
| 2026-04-30 12:51 | 21.38983 | 65.41945 | 35964 ft | 437 kts | 294° |
| 2026-04-30 12:52 | 21.41707 | 65.36107 | 35966 ft | 437 kts | 294° |
| 2026-04-30 12:52 | 21.44430 | 65.30266 | 35965 ft | 438 kts | 294° |
| 2026-04-30 12:53 | 21.47157 | 65.24409 | 35959 ft | 438 kts | 294° |
| 2026-04-30 12:53 | 21.49879 | 65.18557 | 35954 ft | 437 kts | 294° |
| 2026-04-30 12:54 | 21.52596 | 65.12709 | 35951 ft | 436 kts | 294° |
| 2026-04-30 12:54 | 21.55290 | 65.06903 | 35950 ft | 436 kts | 294° |
| 2026-04-30 12:55 | 21.57984 | 65.01090 | 35950 ft | 436 kts | 294° |
| 2026-04-30 12:55 | 21.60689 | 64.95248 | 35954 ft | 437 kts | 294° |
| 2026-04-30 12:56 | 21.63395 | 64.89398 | 35952 ft | 437 kts | 294° |
| 2026-04-30 12:56 | 21.66101 | 64.83539 | 35952 ft | 437 kts | 294° |
| 2026-04-30 12:57 | 21.68806 | 64.77677 | 35951 ft | 437 kts | 294° |
| 2026-04-30 12:57 | 21.71504 | 64.71823 | 35952 ft | 437 kts | 294° |
| 2026-04-30 12:58 | 21.74186 | 64.65999 | 35951 ft | 436 kts | 294° |
| 2026-04-30 12:58 | 21.76876 | 64.60151 | 35953 ft | 436 kts | 294° |
| 2026-04-30 12:59 | 21.79568 | 64.54288 | 35946 ft | 436 kts | 294° |
| 2026-04-30 12:59 | 21.82243 | 64.48459 | 35946 ft | 436 kts | 294° |
| 2026-04-30 13:00 | 21.84917 | 64.42625 | 35948 ft | 436 kts | 293° |
| 2026-04-30 13:00 | 21.87597 | 64.36770 | 35948 ft | 436 kts | 293° |
| 2026-04-30 13:01 | 21.90274 | 64.30915 | 35946 ft | 436 kts | 293° |
| 2026-04-30 13:01 | 21.92956 | 64.25043 | 35948 ft | 436 kts | 293° |
| 2026-04-30 13:02 | 21.95612 | 64.19222 | 35944 ft | 435 kts | 293° |
| 2026-04-30 13:02 | 21.98275 | 64.13377 | 35945 ft | 434 kts | 293° |
| 2026-04-30 13:03 | 22.00945 | 64.07511 | 35943 ft | 434 kts | 293° |
| 2026-04-30 13:03 | 22.03587 | 64.01699 | 35942 ft | 435 kts | 293° |
| 2026-04-30 13:04 | 22.06253 | 63.95828 | 35942 ft | 435 kts | 293° |
| 2026-04-30 13:04 | 22.08914 | 63.89962 | 35942 ft | 435 kts | 293° |
| 2026-04-30 13:05 | 22.11574 | 63.84090 | 35943 ft | 435 kts | 293° |
| 2026-04-30 13:06 | 22.15548 | 63.75306 | 35942 ft | 434 kts | 293° |
| 2026-04-30 13:06 | 22.18194 | 63.69448 | 35943 ft | 434 kts | 293° |
| 2026-04-30 13:07 | 22.20842 | 63.63578 | 35941 ft | 434 kts | 293° |
| 2026-04-30 13:07 | 22.23484 | 63.57715 | 35936 ft | 434 kts | 293° |
| 2026-04-30 13:08 | 22.26107 | 63.51889 | 35939 ft | 434 kts | 293° |
| 2026-04-30 13:08 | 22.28743 | 63.46026 | 35940 ft | 434 kts | 293° |
| 2026-04-30 13:09 | 22.31378 | 63.40158 | 35935 ft | 434 kts | 293° |
| 2026-04-30 13:09 | 22.34014 | 63.34283 | 35934 ft | 434 kts | 293° |
| 2026-04-30 13:10 | 22.36645 | 63.28411 | 35937 ft | 433 kts | 293° |
| 2026-04-30 13:10 | 22.38827 | 63.23535 | 35934 ft | 433 kts | 293° |
| 2026-04-30 13:11 | 22.41450 | 63.17668 | 35934 ft | 433 kts | 293° |
| 2026-04-30 13:11 | 22.43970 | 63.11761 | 35933 ft | 430 kts | 285° |
| 2026-04-30 13:12 | 22.45733 | 63.05589 | 35937 ft | 430 kts | 284° |
| 2026-04-30 13:12 | 22.47350 | 62.99402 | 35934 ft | 430 kts | 283° |
| 2026-04-30 13:13 | 22.49736 | 62.90038 | 35934 ft | 430 kts | 283° |
| 2026-04-30 13:14 | 22.52140 | 62.80677 | 35939 ft | 431 kts | 283° |
| 2026-04-30 13:14 | 22.54549 | 62.71310 | 35935 ft | 430 kts | 283° |
| 2026-04-30 13:15 | 22.56947 | 62.61962 | 35934 ft | 430 kts | 283° |
| 2026-04-30 13:16 | 22.58545 | 62.55733 | 35938 ft | 430 kts | 283° |
| 2026-04-30 13:16 | 22.60139 | 62.49505 | 35937 ft | 430 kts | 283° |
| 2026-04-30 13:17 | 22.62522 | 62.40161 | 35939 ft | 429 kts | 283° |
| 2026-04-30 13:18 | 22.64899 | 62.30812 | 35939 ft | 429 kts | 283° |
| 2026-04-30 13:18 | 22.67262 | 62.21492 | 35936 ft | 429 kts | 283° |
| 2026-04-30 13:19 | 22.68840 | 62.15253 | 35937 ft | 430 kts | 283° |
| 2026-04-30 13:19 | 22.70417 | 62.09007 | 35937 ft | 430 kts | 283° |
| 2026-04-30 13:20 | 22.71991 | 62.02765 | 35840 ft | 430 kts | 283° |
| 2026-04-30 13:20 | 22.73564 | 61.96516 | 35766 ft | 430 kts | 283° |
| 2026-04-30 13:21 | 22.75133 | 61.90261 | 35767 ft | 430 kts | 282° |
| 2026-04-30 13:22 | 22.77480 | 61.80868 | 35767 ft | 430 kts | 282° |
| 2026-04-30 13:22 | 22.79815 | 61.71521 | 35769 ft | 430 kts | 282° |
| 2026-04-30 13:23 | 22.82158 | 61.62127 | 35765 ft | 430 kts | 282° |
| 2026-04-30 13:24 | 22.85272 | 61.49595 | 35769 ft | 430 kts | 282° |
| 2026-04-30 13:25 | 22.88373 | 61.37073 | 35765 ft | 429 kts | 282° |
| 2026-04-30 13:26 | 22.92216 | 61.21490 | 35766 ft | 429 kts | 282° |
| 2026-04-30 13:28 | 22.96058 | 61.05838 | 35762 ft | 429 kts | 282° |
| 2026-04-30 13:28 | 22.98356 | 60.96444 | 35763 ft | 429 kts | 282° |
| 2026-04-30 13:29 | 23.01414 | 60.83901 | 35765 ft | 430 kts | 282° |
| 2026-04-30 13:31 | 23.05207 | 60.68281 | 35764 ft | 428 kts | 282° |
| 2026-04-30 13:32 | 23.08987 | 60.52639 | 35768 ft | 428 kts | 282° |
| 2026-04-30 13:33 | 23.11991 | 60.40159 | 35766 ft | 428 kts | 282° |
| 2026-04-30 13:34 | 23.14244 | 60.30767 | 35766 ft | 428 kts | 282° |
| 2026-04-30 13:35 | 23.14734 | 60.28720 | 35768 ft | 428 kts | 282° |
| 2026-04-30 13:42 | 23.15708 | 60.24647 | 35769 ft | 428 kts | 282° |
| 2026-04-30 13:43 | 23.17204 | 60.18386 | 35769 ft | 428 kts | 282° |
| 2026-04-30 13:43 | 23.18696 | 60.12133 | 35771 ft | 426 kts | 281° |
| 2026-04-30 13:44 | 23.20180 | 60.05895 | 35769 ft | 426 kts | 281° |
| 2026-04-30 13:44 | 23.21651 | 59.99701 | 35549 ft | 425 kts | 281° |
| 2026-04-30 13:45 | 23.23125 | 59.93485 | 35082 ft | 425 kts | 281° |
| 2026-04-30 13:45 | 23.23861 | 59.90376 | 34840 ft | 424 kts | 281° |
| 2026-04-30 13:45 | 23.24592 | 59.87286 | 34380 ft | 420 kts | 281° |
| 2026-04-30 13:46 | 23.25319 | 59.84210 | 33797 ft | 420 kts | 281° |
| 2026-04-30 13:46 | 23.26044 | 59.81138 | 33098 ft | 420 kts | 281° |
| 2026-04-30 13:46 | 23.26768 | 59.78069 | 32494 ft | 417 kts | 281° |
| 2026-04-30 13:46 | 23.27482 | 59.75040 | 32104 ft | 410 kts | 281° |
| 2026-04-30 13:47 | 23.28187 | 59.72052 | 31678 ft | 404 kts | 281° |
| 2026-04-30 13:47 | 23.28880 | 59.69110 | 31230 ft | 399 kts | 281° |
| 2026-04-30 13:47 | 23.29564 | 59.66201 | 30814 ft | 394 kts | 281° |
| 2026-04-30 13:47 | 23.30239 | 59.63330 | 30391 ft | 390 kts | 281° |
| 2026-04-30 13:48 | 23.30905 | 59.60491 | 29964 ft | 386 kts | 281° |
| 2026-04-30 13:48 | 23.31567 | 59.57670 | 29479 ft | 382 kts | 282° |
| 2026-04-30 13:48 | 23.32212 | 59.54911 | 29054 ft | 380 kts | 282° |
| 2026-04-30 13:48 | 23.32871 | 59.52094 | 28619 ft | 378 kts | 282° |
| 2026-04-30 13:49 | 23.33517 | 59.49328 | 28195 ft | 376 kts | 282° |
| 2026-04-30 13:49 | 23.34149 | 59.46622 | 27778 ft | 372 kts | 282° |
| 2026-04-30 13:49 | 23.34784 | 59.43900 | 27361 ft | 369 kts | 282° |
| 2026-04-30 13:49 | 23.35413 | 59.41204 | 26957 ft | 366 kts | 282° |
| 2026-04-30 13:50 | 23.36038 | 59.38524 | 26541 ft | 363 kts | 282° |
| 2026-04-30 13:50 | 23.37267 | 59.33242 | 25699 ft | 357 kts | 282° |
| 2026-04-30 13:50 | 23.37875 | 59.30629 | 25293 ft | 354 kts | 282° |
| 2026-04-30 13:51 | 23.38476 | 59.28044 | 24896 ft | 351 kts | 282° |
| 2026-04-30 13:51 | 23.39072 | 59.25477 | 24485 ft | 348 kts | 282° |
| 2026-04-30 13:51 | 23.39663 | 59.22925 | 24085 ft | 345 kts | 282° |
| 2026-04-30 13:51 | 23.40249 | 59.20401 | 23685 ft | 342 kts | 283° |
| 2026-04-30 13:52 | 23.41129 | 59.18002 | 23313 ft | 343 kts | 298° |
| 2026-04-30 13:52 | 23.42668 | 59.16020 | 22895 ft | 347 kts | 318° |
| 2026-04-30 13:52 | 23.44796 | 59.14810 | 22475 ft | 355 kts | 341° |
| 2026-04-30 13:52 | 23.47265 | 59.14452 | 22049 ft | 361 kts | 352° |
| 2026-04-30 13:53 | 23.49783 | 59.14390 | 21618 ft | 362 kts | 354° |
| 2026-04-30 13:53 | 23.52298 | 59.14372 | 21193 ft | 360 kts | 354° |
| 2026-04-30 13:53 | 23.54799 | 59.14349 | 20767 ft | 358 kts | 354° |
| 2026-04-30 13:53 | 23.56443 | 59.14329 | 20494 ft | 356 kts | 354° |
| 2026-04-30 13:54 | 23.59745 | 59.14278 | 19930 ft | 353 kts | 354° |
| 2026-04-30 13:54 | 23.62196 | 59.14236 | 19515 ft | 351 kts | 354° |
| 2026-04-30 13:54 | 23.64630 | 59.14191 | 19092 ft | 349 kts | 354° |
| 2026-04-30 13:54 | 23.67056 | 59.14145 | 18678 ft | 347 kts | 354° |
| 2026-04-30 13:55 | 23.69433 | 59.14099 | 18268 ft | 345 kts | 354° |
| 2026-04-30 13:55 | 23.71826 | 59.14053 | 17828 ft | 343 kts | 354° |
| 2026-04-30 13:55 | 23.74200 | 59.14007 | 17395 ft | 340 kts | 355° |
| 2026-04-30 13:55 | 23.76556 | 59.13961 | 17004 ft | 338 kts | 355° |
| 2026-04-30 13:56 | 23.78902 | 59.13915 | 16609 ft | 336 kts | 355° |
| 2026-04-30 13:56 | 23.81231 | 59.13870 | 16197 ft | 334 kts | 355° |
| 2026-04-30 13:56 | 23.83538 | 59.13799 | 15793 ft | 329 kts | 351° |
| 2026-04-30 13:56 | 23.85773 | 59.13283 | 15352 ft | 332 kts | 334° |
| 2026-04-30 13:57 | 23.86477 | 59.12931 | 15202 ft | 333 kts | 327° |
| 2026-04-30 14:29 | 23.87796 | 59.11896 | 14908 ft | 325 kts | 313° |
| 2026-04-30 14:30 | 23.89400 | 59.04652 | 13591 ft | 300 kts | 252° |
| 2026-04-30 14:31 | 23.87891 | 59.00501 | 12948 ft | 285 kts | 247° |
| 2026-04-30 14:31 | 23.86389 | 58.96589 | 12257 ft | 274 kts | 248° |
| 2026-04-30 14:31 | 23.85666 | 58.94682 | 11912 ft | 270 kts | 248° |
| 2026-04-30 14:32 | 23.84260 | 58.90949 | 11234 ft | 261 kts | 248° |
| 2026-04-30 14:32 | 23.83584 | 58.89152 | 10909 ft | 257 kts | 248° |
| 2026-04-30 14:32 | 23.82911 | 58.87359 | 10586 ft | 253 kts | 248° |
| 2026-04-30 14:33 | 23.82257 | 58.85607 | 10376 ft | 245 kts | 248° |
| 2026-04-30 14:33 | 23.80997 | 58.82218 | 9708 ft | 240 kts | 248° |
| 2026-04-30 14:33 | 23.80368 | 58.80528 | 9311 ft | 239 kts | 248° |
| 2026-04-30 14:34 | 23.79748 | 58.78865 | 9016 ft | 234 kts | 248° |
| 2026-04-30 14:34 | 23.79141 | 58.77235 | 8723 ft | 229 kts | 248° |
| 2026-04-30 14:34 | 23.78547 | 58.75640 | 8436 ft | 225 kts | 248° |
| 2026-04-30 14:34 | 23.77963 | 58.74072 | 8150 ft | 220 kts | 249° |
| 2026-04-30 14:35 | 23.77012 | 58.71518 | 7603 ft | 217 kts | 249° |
| 2026-04-30 14:35 | 23.76262 | 58.69506 | 7167 ft | 215 kts | 249° |
| 2026-04-30 14:35 | 23.75698 | 58.67996 | 6831 ft | 214 kts | 249° |
| 2026-04-30 14:36 | 23.75136 | 58.66489 | 6510 ft | 214 kts | 250° |
| 2026-04-30 14:36 | 23.74966 | 58.66034 | 6403 ft | 213 kts | 250° |
| 2026-04-30 14:36 | 23.74527 | 58.64885 | 6277 ft | 205 kts | 247° |
| 2026-04-30 14:36 | 23.73822 | 58.63582 | 6042 ft | 202 kts | 234° |
| 2026-04-30 14:37 | 23.72737 | 58.62519 | 5517 ft | 215 kts | 217° |
| 2026-04-30 14:37 | 23.71448 | 58.61659 | 5111 ft | 218 kts | 213° |
| 2026-04-30 14:37 | 23.70123 | 58.60840 | 4740 ft | 219 kts | 212° |
| 2026-04-30 14:37 | 23.68797 | 58.60023 | 4417 ft | 219 kts | 212° |
| 2026-04-30 14:38 | 23.67473 | 58.59201 | 4058 ft | 219 kts | 212° |
| 2026-04-30 14:38 | 23.66152 | 58.58376 | 3715 ft | 219 kts | 212° |
| 2026-04-30 14:38 | 23.64844 | 58.57556 | 3485 ft | 212 kts | 211° |
| 2026-04-30 14:38 | 23.63578 | 58.56760 | 3574 ft | 219 kts | 212° |
| 2026-04-30 14:39 | 23.62315 | 58.55730 | 3585 ft | 231 kts | 229° |
| 2026-04-30 14:39 | 23.61500 | 58.54269 | 3613 ft | 222 kts | 253° |
| 2026-04-30 14:39 | 23.61220 | 58.52724 | 3662 ft | 193 kts | 266° |
| 2026-04-30 14:40 | 23.61052 | 58.50095 | 3332 ft | 162 kts | 266° |
| 2026-04-30 14:40 | 23.60953 | 58.48917 | 3098 ft | 154 kts | 266° |
| 2026-04-30 14:40 | 23.60859 | 58.47777 | 2874 ft | 144 kts | 266° |
| 2026-04-30 14:40 | 23.60775 | 58.46728 | 2703 ft | 139 kts | 268° |
| 2026-04-30 14:41 | 23.60691 | 58.45681 | 2535 ft | 139 kts | 268° |
| 2026-04-30 14:41 | 23.60607 | 58.44631 | 2348 ft | 139 kts | 267° |
| 2026-04-30 14:41 | 23.60523 | 58.43584 | 2182 ft | 138 kts | 268° |
| 2026-04-30 14:41 | 23.60439 | 58.42539 | 2003 ft | 139 kts | 268° |
| 2026-04-30 14:42 | 23.60355 | 58.41492 | 1830 ft | 139 kts | 266° |
| 2026-04-30 14:42 | 23.60271 | 58.40444 | 1653 ft | 138 kts | 266° |
| 2026-04-30 14:42 | 23.60187 | 58.39400 | 1505 ft | 138 kts | 266° |
| 2026-04-30 14:42 | 23.60103 | 58.38358 | 1349 ft | 138 kts | 266° |
| 2026-04-30 14:43 | 23.60020 | 58.37314 | 1194 ft | 138 kts | 265° |
| 2026-04-30 14:43 | 23.59936 | 58.36270 | 1037 ft | 138 kts | 265° |
| 2026-04-30 14:43 | 23.59852 | 58.35227 | 875 ft | 138 kts | 265° |
| 2026-04-30 14:43 | 23.59768 | 58.34179 | 685 ft | 139 kts | 265° |
| 2026-04-30 14:44 | 23.59713 | 58.33487 | 571 ft | 138 kts | 265° |
| 2026-04-30 14:44 | 23.59600 | 58.32100 | 401 ft | 134 kts | 265° |
| 2026-04-30 14:44 | 23.59547 | 58.31440 | 285 ft | 129 kts | 266° |
| 2026-04-30 14:44 | 23.59473 | 58.30409 | 136 ft | 140 kts | 265° |
| 2026-04-30 14:45 | 23.59400 | 58.29422 | 41 ft | 103 kts | 262° |
| 2026-04-30 14:45 | 23.59349 | 58.29009 | 39 ft | 33 kts | 263° |
| 2026-04-30 14:45 | 23.59354 | 58.28783 | 41 ft | 27 kts | 285° |
| 2026-04-30 14:45 | 23.59417 | 58.28583 | 41 ft | 28 kts | 295° |
| 2026-04-30 14:46 | 23.59483 | 58.28428 | 40 ft | 7 kts | 292° |
| 2026-04-30 14:46 | 23.59498 | 58.28372 | 41 ft | 9 kts | 287° |
| 2026-04-30 14:46 | 23.59511 | 58.28297 | 42 ft | 11 kts | 270° |
| 2026-04-30 14:46 | 23.59505 | 58.28203 | 42 ft | 14 kts | 264° |
| 2026-04-30 14:47 | 23.59500 | 58.28087 | 43 ft | 18 kts | 265° |
| 2026-04-30 14:47 | 23.59475 | 58.27923 | 43 ft | 25 kts | 265° |
| 2026-04-30 14:47 | 23.59497 | 58.27797 | 43 ft | 10 kts | 331° |
| 2026-04-30 14:47 | 23.59550 | 58.27804 | 43 ft | 8 kts | 26° |
| 2026-04-30 14:48 | 23.59620 | 58.27869 | 43 ft | 18 kts | 41° |
| 2026-04-30 14:48 | 23.59712 | 58.27955 | 40 ft | 0 kts | 41° |
| 2026-04-30 14:48 | 23.59739 | 58.27968 | 42 ft | 9 kts | 9° |
| 2026-04-30 14:48 | 23.59805 | 58.27953 | 42 ft | 1 kts | 338° |
| 2026-04-30 14:49 | 23.59836 | 58.27947 | 42 ft | 6 kts | 350° |
| 2026-04-30 14:49 | 23.59897 | 58.27941 | 41 ft | 10 kts | 354° |
| 2026-04-30 14:49 | 23.59921 | 58.27938 | 42 ft | 0 kts | 354° |